createdAt,value
2022-08-27T00:02:24.857Z,100.00
2022-08-27T00:04:54.193Z,100.00
2022-08-27T00:07:23.153Z,100.00
2022-08-27T00:09:51.844Z,100.00
2022-08-27T00:12:20.635Z,100.00
2022-08-27T00:14:49.821Z,100.00
2022-08-27T00:17:18.971Z,100.00
2022-08-27T00:19:49.386Z,100.00
2022-08-27T00:22:18.314Z,100.00
2022-08-27T00:24:48.675Z,100.00
2022-08-27T00:27:19.120Z,100.00
2022-08-27T00:29:48.209Z,100.00
2022-08-27T00:32:17.912Z,100.00
2022-08-27T00:34:48.484Z,100.00
2022-08-27T00:37:17.687Z,100.00
2022-08-27T00:39:46.641Z,100.00
2022-08-27T00:42:18.029Z,100.00
2022-08-27T00:44:47.268Z,100.00
2022-08-27T00:47:27.349Z,100.00
2022-08-27T00:50:04.176Z,100.00
2022-08-27T00:52:37.900Z,100.00
2022-08-27T00:55:13.056Z,100.00
2022-08-27T00:57:45.139Z,100.00
2022-08-27T01:00:18.278Z,100.00
2022-08-27T01:02:48.503Z,100.00
2022-08-27T01:05:25.569Z,100.00
2022-08-27T01:07:58.985Z,100.00
2022-08-27T01:10:30.946Z,100.00
2022-08-27T01:13:02.246Z,100.00
2022-08-27T01:15:32.897Z,100.00
2022-08-27T01:18:04.176Z,100.00
2022-08-27T01:20:57.057Z,100.00
2022-08-27T01:23:37.466Z,100.00
2022-08-27T01:26:09.689Z,100.00
2022-08-27T01:28:39.241Z,100.00
2022-08-27T01:31:12.799Z,100.00
2022-08-27T01:33:42.299Z,100.00
2022-08-27T01:36:11.246Z,100.00
2022-08-27T01:38:40.299Z,100.00
2022-08-27T01:41:15.255Z,100.00
2022-08-27T01:43:53.743Z,100.00
2022-08-27T01:46:24.182Z,100.00
2022-08-27T01:48:53.648Z,100.00
2022-08-27T01:51:23.300Z,100.00
2022-08-27T01:53:53.295Z,100.00
2022-08-27T01:56:23.643Z,100.00
2022-08-27T01:58:52.523Z,100.00
2022-08-27T02:01:21.615Z,100.00
2022-08-27T02:03:50.508Z,100.00
2022-08-27T02:06:19.743Z,100.00
2022-08-27T02:08:48.708Z,100.00
2022-08-27T02:11:19.582Z,100.00
2022-08-27T02:13:49.970Z,100.00
2022-08-27T02:16:19.404Z,100.00
2022-08-27T02:18:54.458Z,100.00
2022-08-27T02:21:25.095Z,100.00
2022-08-27T02:23:55.159Z,100.00
2022-08-27T02:26:24.636Z,100.00
2022-08-27T02:28:55.036Z,100.00
2022-08-27T02:31:24.539Z,100.00
2022-08-27T02:33:53.525Z,100.00
2022-08-27T02:36:22.493Z,100.00
2022-08-27T02:38:51.696Z,100.00
2022-08-27T02:41:20.486Z,100.00
2022-08-27T02:43:49.384Z,100.00
2022-08-27T02:46:20.571Z,100.00
2022-08-27T02:48:49.779Z,100.00
2022-08-27T02:51:18.638Z,100.00
2022-08-27T02:53:48.350Z,100.00
2022-08-27T02:56:21.719Z,100.00
2022-08-27T02:58:51.146Z,100.00
2022-08-27T03:01:21.150Z,100.00
2022-08-27T03:03:50.202Z,100.00
2022-08-27T03:06:19.206Z,100.00
2022-08-27T03:08:53.003Z,100.00
2022-08-27T03:11:24.539Z,100.00
2022-08-27T03:13:54.213Z,100.00
2022-08-27T03:16:24.915Z,100.00
2022-08-27T03:18:53.170Z,100.00
2022-08-27T03:21:25.790Z,100.00
2022-08-27T03:23:55.003Z,100.00
2022-08-27T03:26:24.121Z,100.00
2022-08-27T03:28:53.098Z,100.00
2022-08-27T03:31:27.768Z,100.00
2022-08-27T03:33:59.925Z,100.00
2022-08-27T03:36:31.132Z,100.00
2022-08-27T03:39:00.514Z,100.00
2022-08-27T03:41:43.831Z,100.00
2022-08-27T03:44:21.591Z,100.00
2022-08-27T03:46:52.756Z,100.00
2022-08-27T03:49:23.398Z,100.00
2022-08-27T03:51:54.242Z,100.00
2022-08-27T03:54:23.410Z,100.00
2022-08-27T03:56:52.781Z,100.00
2022-08-27T03:59:21.688Z,100.00
2022-08-27T04:01:52.273Z,100.00
2022-08-27T04:04:21.929Z,100.00
2022-08-27T04:06:51.101Z,100.00
2022-08-27T04:09:20.170Z,100.00
2022-08-27T04:12:06.077Z,100.00
2022-08-27T04:14:42.821Z,100.00
2022-08-27T04:17:15.479Z,100.00
2022-08-27T04:19:44.419Z,100.00
2022-08-27T04:22:15.010Z,100.00
2022-08-27T04:24:45.358Z,100.00
2022-08-27T04:27:16.188Z,100.00
2022-08-27T04:29:46.822Z,100.00
2022-08-27T04:32:18.094Z,100.00
2022-08-27T04:34:47.134Z,100.00
2022-08-27T04:37:15.978Z,100.00
2022-08-27T04:39:54.416Z,100.00
2022-08-27T04:42:23.777Z,100.00
2022-08-27T04:44:53.835Z,100.00
2022-08-27T04:47:24.576Z,100.00
2022-08-27T04:49:53.626Z,100.00
2022-08-27T04:52:22.608Z,100.00
2022-08-27T04:54:52.078Z,100.00
2022-08-27T04:57:21.158Z,100.00
2022-08-27T04:59:50.871Z,100.00
2022-08-27T05:02:20.051Z,100.00
2022-08-27T05:04:53.345Z,100.00
2022-08-27T05:07:22.378Z,100.00
2022-08-27T05:09:52.279Z,100.00
2022-08-27T05:12:21.360Z,100.00
2022-08-27T05:14:50.368Z,100.00
2022-08-27T05:17:20.076Z,100.00
2022-08-27T05:19:54.124Z,100.00
2022-08-27T05:22:23.968Z,100.00
2022-08-27T05:24:54.824Z,100.00
2022-08-27T05:27:25.004Z,100.00
2022-08-27T05:29:54.784Z,100.00
2022-08-27T05:32:27.967Z,100.00
2022-08-27T05:34:58.442Z,100.00
2022-08-27T05:37:34.608Z,100.00
2022-08-27T05:40:11.770Z,100.00
2022-08-27T05:42:42.823Z,100.00
2022-08-27T05:45:18.589Z,100.00
2022-08-27T05:47:49.007Z,100.00
2022-08-27T05:50:23.470Z,100.00
2022-08-27T05:52:54.804Z,100.00
2022-08-27T05:55:24.949Z,100.00
2022-08-27T05:57:53.996Z,100.00
2022-08-27T06:00:40.016Z,100.00
2022-08-27T06:03:13.029Z,100.00
2022-08-27T06:05:43.592Z,100.00
2022-08-27T06:08:12.698Z,100.00
2022-08-27T06:10:43.133Z,100.00
2022-08-27T06:13:13.896Z,100.00
2022-08-27T06:15:43.156Z,100.00
2022-08-27T06:18:14.830Z,100.00
2022-08-27T06:20:45.339Z,100.00
2022-08-27T06:23:14.768Z,100.00
2022-08-27T06:25:45.664Z,100.00
2022-08-27T06:28:18.205Z,100.00
2022-08-27T06:30:48.535Z,100.00
2022-08-27T06:33:17.617Z,100.00
2022-08-27T06:35:49.447Z,100.00
2022-08-27T06:38:18.410Z,100.00
2022-08-27T06:40:47.002Z,100.00
2022-08-27T06:43:15.921Z,100.00
2022-08-27T06:45:44.786Z,100.00
2022-08-27T06:48:13.400Z,100.00
2022-08-27T06:50:44.663Z,100.00
2022-08-27T06:53:15.502Z,100.00
2022-08-27T06:55:45.616Z,100.00
2022-08-27T06:58:15.671Z,100.00
2022-08-27T07:00:49.132Z,100.00
2022-08-27T07:03:18.205Z,100.00
2022-08-27T07:05:55.156Z,100.00
2022-08-27T07:08:30.456Z,100.00
2022-08-27T07:10:59.548Z,100.00
2022-08-27T07:13:30.870Z,100.00
2022-08-27T07:16:00.241Z,100.00
2022-08-27T07:18:29.366Z,100.00
2022-08-27T07:20:58.067Z,100.00
2022-08-27T07:23:28.687Z,100.00
2022-08-27T07:25:57.556Z,100.00
2022-08-27T07:28:26.659Z,100.00
2022-08-27T07:30:56.458Z,100.00
2022-08-27T07:33:25.327Z,100.00
2022-08-27T07:35:55.801Z,100.00
2022-08-27T07:38:27.099Z,100.00
2022-08-27T07:40:57.524Z,100.00
2022-08-27T07:43:46.657Z,100.00
2022-08-27T07:46:15.733Z,100.00
2022-08-27T07:48:56.599Z,100.00
2022-08-27T07:51:27.854Z,100.00
2022-08-27T07:53:58.864Z,100.00
2022-08-27T07:56:34.708Z,100.00
2022-08-27T07:59:05.618Z,100.00
2022-08-27T08:01:42.079Z,100.00
2022-08-27T08:04:11.407Z,100.00
2022-08-27T08:06:46.228Z,100.00
2022-08-27T08:09:19.942Z,100.00
2022-08-27T08:11:50.405Z,100.00
2022-08-27T08:14:21.788Z,100.00
2022-08-27T08:16:51.090Z,100.00
2022-08-27T08:19:28.802Z,100.00
2022-08-27T08:22:06.201Z,100.00
2022-08-27T08:24:36.691Z,100.00
2022-08-27T08:27:07.965Z,100.00
2022-08-27T08:29:42.881Z,100.00
2022-08-27T08:32:17.677Z,100.00
2022-08-27T08:34:51.531Z,100.00
2022-08-27T08:37:22.544Z,100.00
2022-08-27T08:39:51.738Z,100.00
2022-08-27T08:42:35.919Z,100.00
2022-08-27T08:45:08.567Z,100.00
2022-08-27T08:47:49.460Z,100.00
2022-08-27T08:50:28.506Z,100.00
2022-08-27T08:53:15.472Z,100.00
2022-08-27T08:55:59.011Z,100.00
2022-08-27T08:58:42.659Z,100.00
2022-08-27T09:01:12.893Z,100.00
2022-08-27T09:03:49.009Z,100.00
2022-08-27T09:06:31.208Z,100.00
2022-08-27T09:09:20.659Z,100.00
2022-08-27T09:12:01.052Z,100.00
2022-08-27T09:14:39.943Z,100.00
2022-08-27T09:17:11.457Z,100.00
2022-08-27T09:19:41.577Z,100.00
2022-08-27T09:22:24.352Z,100.00
2022-08-27T09:25:08.531Z,100.00
2022-08-27T09:27:42.161Z,100.00
2022-08-27T09:30:20.811Z,100.00
2022-08-27T09:32:57.045Z,100.00
2022-08-27T09:35:35.912Z,100.00
2022-08-27T09:38:05.615Z,100.00
2022-08-27T09:40:40.462Z,100.00
2022-08-27T09:43:22.560Z,100.00
2022-08-27T09:45:57.886Z,100.00
2022-08-27T09:48:29.718Z,100.00
2022-08-27T10:02:24.600Z,100.00
2022-08-27T10:04:55.480Z,100.00
2022-08-27T10:07:45.047Z,100.00
2022-08-27T10:10:20.827Z,100.00
2022-08-27T10:12:55.266Z,100.00
2022-08-27T10:15:29.631Z,100.00
2022-08-27T10:18:11.357Z,100.00
2022-08-27T10:20:51.381Z,100.00
2022-08-27T10:23:30.130Z,100.00
2022-08-27T10:26:11.911Z,100.00
2022-08-27T10:28:54.223Z,100.00
2022-08-27T10:31:34.275Z,100.00
2022-08-27T10:34:17.758Z,100.00
2022-08-27T10:36:58.932Z,100.00
2022-08-27T10:39:45.544Z,100.00
2022-08-27T10:42:22.942Z,100.00
2022-08-27T10:45:03.731Z,100.00
2022-08-27T10:47:50.811Z,100.00
2022-08-27T10:50:29.737Z,100.00
2022-08-27T10:53:03.581Z,100.00
2022-08-27T10:55:34.918Z,100.00
2022-08-27T10:58:36.507Z,100.00
2022-08-27T11:01:14.143Z,100.00
2022-08-27T11:03:49.259Z,100.00
2022-08-27T11:06:26.253Z,100.00
2022-08-27T11:09:01.416Z,100.00
2022-08-27T11:12:13.885Z,100.00
2022-08-27T11:14:37.693Z,100.00
2022-08-27T11:17:17.984Z,100.00
2022-08-27T11:19:54.923Z,100.00
2022-08-27T11:22:31.024Z,100.00
2022-08-27T11:25:10.543Z,100.00
2022-08-27T11:27:41.086Z,100.00
2022-08-27T11:30:18.114Z,100.00
2022-08-27T11:32:58.471Z,100.00
2022-08-27T11:35:37.134Z,97.28
2022-08-27T11:38:25.475Z,97.13
2022-08-27T11:41:12.820Z,96.47
2022-08-27T11:43:45.791Z,94.33
2022-08-27T11:46:25.969Z,92.23
2022-08-27T11:49:03.010Z,89.67
2022-08-27T11:51:35.237Z,90.04
2022-08-27T11:54:08.339Z,93.05
2022-08-27T11:56:43.402Z,94.62
2022-08-27T11:59:22.059Z,94.20
2022-08-27T12:01:54.046Z,95.69
2022-08-27T12:04:35.322Z,96.40
2022-08-27T12:07:07.191Z,96.49
2022-08-27T12:09:58.169Z,97.94
2022-08-27T12:12:36.376Z,97.64
2022-08-27T12:15:09.877Z,97.75
2022-08-27T12:17:44.140Z,95.42
2022-08-27T12:20:25.447Z,92.88
2022-08-27T12:23:39.750Z,89.89
2022-08-27T12:26:24.334Z,90.61
2022-08-27T12:28:56.910Z,92.36
2022-08-27T12:31:26.287Z,92.45
2022-08-27T12:33:56.544Z,93.20
2022-08-27T12:36:29.466Z,91.36
2022-08-27T12:39:00.595Z,94.80
2022-08-27T12:41:43.783Z,96.52
2022-08-27T12:44:17.021Z,95.40
2022-08-27T12:46:50.073Z,95.27
2022-08-27T12:49:38.006Z,96.90
2022-08-27T12:52:21.288Z,96.13
2022-08-27T12:55:06.058Z,94.01
2022-08-27T12:57:45.151Z,90.51
2022-08-27T13:00:19.406Z,89.41
2022-08-27T13:03:24.447Z,88.51
2022-08-27T13:05:57.680Z,87.42
2022-08-27T13:08:41.787Z,85.42
2022-08-27T13:11:23.662Z,86.82
2022-08-27T13:14:05.788Z,84.56
2022-08-27T13:16:40.009Z,85.81
2022-08-27T13:19:17.602Z,86.04
2022-08-27T13:21:51.656Z,87.78
2022-08-27T13:24:39.485Z,87.82
2022-08-27T13:27:12.178Z,85.83
2022-08-27T13:29:47.651Z,84.36
2022-08-27T13:32:18.982Z,85.60
2022-08-27T13:34:48.666Z,88.61
2022-08-27T13:37:30.851Z,90.64
2022-08-27T13:40:00.350Z,92.82
2022-08-27T13:42:32.250Z,94.94
2022-08-27T13:45:08.079Z,96.48
2022-08-27T13:48:00.601Z,98.36
2022-08-27T13:50:57.951Z,100.00
2022-08-27T13:57:13.705Z,100.00
2022-08-27T14:01:25.462Z,100.00
2022-08-27T14:02:55.786Z,100.00
2022-08-27T14:05:45.648Z,100.00
2022-08-27T14:08:19.505Z,100.00
2022-08-27T14:10:52.830Z,100.00
2022-08-27T14:13:25.541Z,100.00
2022-08-27T14:15:56.266Z,100.00
2022-08-27T14:18:55.122Z,100.00
2022-08-27T14:21:19.731Z,100.00
2022-08-27T14:23:48.905Z,100.00
2022-08-27T14:26:18.536Z,100.00
2022-08-27T14:28:48.468Z,100.00
2022-08-27T14:31:18.552Z,100.00
2022-08-27T14:33:49.312Z,100.00
2022-08-27T14:36:18.823Z,100.00
2022-08-27T14:38:54.676Z,100.00
2022-08-27T14:41:26.816Z,100.00
2022-08-27T14:43:55.796Z,100.00
2022-08-27T14:46:30.856Z,100.00
2022-08-27T14:49:17.143Z,100.00
2022-08-27T14:51:47.720Z,100.00
2022-08-27T14:54:18.347Z,100.00
2022-08-27T14:56:47.471Z,100.00
2022-08-27T14:59:16.998Z,100.00
2022-08-27T15:01:46.327Z,100.00
2022-08-27T15:04:17.446Z,100.00
2022-08-27T15:06:47.310Z,100.00
2022-08-27T15:09:20.867Z,100.00
2022-08-27T15:11:50.620Z,100.00
2022-08-27T15:14:25.406Z,100.00
2022-08-27T15:17:34.056Z,100.00
2022-08-27T15:20:10.222Z,100.00
2022-08-27T15:22:48.062Z,100.00
2022-08-27T15:25:18.106Z,100.00
2022-08-27T15:27:49.744Z,100.00
2022-08-27T15:30:26.160Z,100.00
2022-08-27T15:32:56.067Z,100.00
2022-08-27T15:35:29.167Z,100.00
2022-08-27T15:37:59.566Z,100.00
2022-08-27T15:40:48.471Z,100.00
2022-08-27T15:43:18.753Z,100.00
2022-08-27T15:45:48.121Z,100.00
2022-08-27T15:48:17.248Z,100.00
2022-08-27T15:50:47.907Z,100.00
2022-08-27T15:53:26.087Z,100.00
2022-08-27T15:55:56.625Z,100.00
2022-08-27T15:58:29.100Z,100.00
2022-08-27T16:01:06.923Z,100.00
2022-08-27T16:03:41.939Z,100.00
2022-08-27T16:06:17.503Z,100.00
2022-08-27T16:08:48.356Z,100.00
2022-08-27T16:11:17.691Z,100.00
2022-08-27T16:13:46.977Z,100.00
2022-08-27T16:16:16.666Z,100.00
2022-08-27T16:18:46.345Z,100.00
2022-08-27T16:21:17.318Z,100.00
2022-08-27T16:23:46.915Z,100.00
2022-08-27T16:26:16.844Z,100.00
2022-08-27T17:44:29.805Z,100.00
2022-08-27T17:47:04.067Z,100.00
2022-08-27T17:49:33.283Z,100.00
2022-08-27T17:52:06.356Z,100.00
2022-08-27T17:54:39.286Z,100.00
2022-08-27T17:57:17.831Z,100.00
2022-08-27T17:59:48.456Z,100.00
2022-08-27T18:02:26.112Z,100.00
2022-08-27T18:04:55.287Z,100.00
2022-08-27T18:07:24.336Z,100.00
2022-08-27T18:09:54.591Z,100.00
2022-08-27T18:12:27.573Z,100.00
2022-08-27T18:15:06.911Z,100.00
2022-08-27T18:17:36.946Z,100.00
2022-08-27T18:20:07.214Z,100.00
2022-08-27T18:22:43.363Z,100.00
2022-08-27T18:25:20.439Z,100.00
2022-08-27T18:27:53.327Z,100.00
2022-08-27T18:30:25.095Z,100.00
2022-08-27T18:32:54.808Z,100.00
2022-08-27T18:35:26.910Z,100.00
2022-08-27T18:37:56.245Z,100.00
2022-08-27T18:40:31.754Z,100.00
2022-08-27T18:43:03.167Z,100.00
2022-08-27T18:45:39.746Z,100.00
2022-08-27T18:48:14.499Z,100.00
2022-08-27T18:50:46.829Z,100.00
2022-08-27T18:53:19.916Z,100.00
2022-08-27T18:55:49.265Z,100.00
2022-08-27T18:58:18.488Z,100.00
2022-08-27T19:00:52.344Z,100.00
2022-08-27T19:03:28.758Z,100.00
2022-08-27T19:05:58.367Z,100.00
2022-08-27T19:08:30.006Z,100.00
2022-08-27T19:10:59.274Z,100.00
2022-08-27T19:13:28.503Z,100.00
2022-08-27T19:16:01.991Z,100.00
2022-08-27T19:18:33.575Z,100.00
2022-08-27T19:21:02.912Z,100.00
2022-08-27T19:23:32.623Z,100.00
2022-08-27T19:26:04.017Z,100.00
2022-08-27T19:28:39.681Z,100.00
2022-08-27T19:31:10.367Z,100.00
2022-08-27T19:33:39.512Z,100.00
2022-08-27T19:36:14.990Z,100.00
2022-08-27T19:38:45.838Z,100.00
2022-08-27T19:41:15.064Z,100.00
2022-08-27T19:43:44.755Z,100.00
2022-08-27T19:46:19.844Z,100.00
2022-08-27T19:48:49.366Z,100.00
2022-08-27T19:51:19.056Z,100.00
2022-08-27T19:53:51.264Z,100.00
2022-08-27T19:56:20.343Z,100.00
2022-08-27T19:58:52.000Z,100.00
2022-08-27T20:01:24.597Z,100.00
2022-08-27T20:03:54.107Z,100.00
2022-08-27T20:06:28.497Z,100.00
2022-08-27T20:08:57.379Z,100.00
2022-08-27T20:11:26.409Z,100.00
2022-08-27T20:14:01.808Z,100.00
2022-08-27T20:16:32.160Z,100.00
2022-08-27T20:19:02.658Z,100.00
2022-08-27T20:21:31.953Z,100.00
2022-08-27T20:24:00.971Z,100.00
2022-08-27T20:26:39.676Z,100.00
2022-08-27T20:29:08.840Z,100.00
2022-08-27T20:31:39.456Z,100.00
2022-08-27T20:34:08.694Z,100.00
2022-08-27T20:36:38.013Z,100.00
2022-08-27T20:39:07.596Z,100.00
2022-08-27T20:41:36.728Z,100.00
2022-08-27T20:44:05.941Z,100.00
2022-08-27T20:46:36.087Z,100.00
2022-08-27T20:49:08.777Z,100.00
2022-08-27T20:51:51.175Z,100.00
2022-08-27T20:54:34.915Z,100.00
2022-08-27T20:57:08.427Z,100.00
2022-08-27T20:59:59.921Z,100.00
2022-08-27T21:02:31.087Z,100.00
2022-08-27T21:05:09.212Z,100.00
2022-08-27T21:07:38.342Z,100.00
2022-08-27T21:10:08.479Z,100.00
2022-08-27T21:12:37.563Z,100.00
2022-08-27T21:15:08.871Z,100.00
2022-08-27T21:17:38.363Z,100.00
2022-08-27T21:20:11.000Z,100.00
2022-08-27T21:22:40.543Z,100.00
2022-08-27T21:25:11.024Z,100.00
2022-08-27T21:27:40.820Z,100.00
2022-08-27T21:30:12.024Z,100.00
2022-08-27T21:32:41.015Z,100.00
2022-08-27T21:35:11.986Z,100.00
2022-08-27T21:37:41.930Z,100.00
2022-08-27T21:40:11.857Z,100.00
2022-08-27T21:42:40.961Z,100.00
2022-08-27T21:45:10.241Z,100.00
2022-08-27T21:47:39.238Z,100.00
2022-08-27T21:50:11.448Z,100.00
2022-08-27T21:52:40.403Z,100.00
2022-08-27T21:55:10.395Z,100.00
2022-08-27T21:57:39.335Z,100.00
2022-08-27T22:00:17.757Z,100.00
2022-08-27T22:02:46.766Z,100.00
2022-08-27T22:05:17.144Z,100.00
2022-08-27T22:07:46.133Z,100.00
2022-08-27T22:10:15.691Z,100.00
2022-08-27T22:12:44.596Z,100.00
2022-08-27T22:15:13.799Z,100.00
2022-08-27T22:17:42.752Z,100.00
2022-08-27T22:20:12.342Z,100.00
2022-08-27T22:22:42.719Z,100.00
2022-08-27T22:25:11.961Z,100.00
2022-08-27T22:27:40.952Z,100.00
2022-08-27T22:30:11.538Z,100.00
2022-08-27T22:32:41.548Z,100.00
2022-08-27T22:35:12.014Z,100.00
2022-08-27T22:37:42.692Z,100.00
2022-08-27T22:40:19.319Z,100.00
2022-08-27T22:42:48.931Z,100.00
2022-08-27T22:45:19.254Z,100.00
2022-08-27T22:47:48.505Z,100.00
2022-08-27T22:50:17.902Z,100.00
2022-08-27T22:52:50.317Z,100.00
2022-08-27T22:55:22.159Z,100.00
2022-08-27T22:57:53.730Z,100.00
2022-08-27T23:00:25.173Z,100.00
2022-08-27T23:02:54.342Z,100.00
2022-08-27T23:05:24.555Z,100.00
2022-08-27T23:07:56.648Z,100.00
2022-08-27T23:10:27.550Z,100.00
2022-08-27T23:12:57.547Z,100.00
2022-08-27T23:15:29.679Z,100.00
2022-08-27T23:17:58.821Z,100.00
2022-08-27T23:20:28.813Z,100.00
2022-08-27T23:22:59.794Z,100.00
2022-08-27T23:25:46.857Z,100.00
2022-08-27T23:28:16.222Z,100.00
2022-08-27T23:30:46.366Z,100.00
2022-08-27T23:33:15.788Z,100.00
2022-08-27T23:35:48.181Z,100.00
2022-08-27T23:38:20.079Z,100.00
2022-08-27T23:40:50.188Z,100.00
2022-08-27T23:43:19.671Z,100.00
2022-08-27T23:45:50.406Z,100.00
2022-08-27T23:48:19.777Z,100.00
2022-08-27T23:50:48.877Z,100.00
2022-08-27T23:53:19.147Z,100.00
2022-08-27T23:55:48.388Z,100.00
2022-08-27T23:58:17.310Z,100.00
